Kirbyville, Texas
Current Conditions -  °F | °C
As of 6:15 PM on Sunday 25 Jan 2015 (Local Time) from KJAS Reporting Station
Clear Clear  
Wind Chill: 62°   Ceiling: Unl
Heat Index: 62°   Visibility: 10mi
Dew Point: 30°   Wind: 8mph
Humidity: 30%   Direction: 290°WNW
Pressure: 30.01"   Gusts: NA
Location:  30.66°N, 93.89°W
Report Text: KJAS 260015Z AUTO 29007KT 10SM CLR 17/M01 A3001 RMK AO2 T01661012
Loading
Personal Weather Stations






























Interactive Weather Map New forecast layout! Learn more

10-Day Weather Forecast

Advertisements
Track Severe Weather on mobile